Time;durP1;ratioP1;P1;durP2;ratioP2;P2;SDS_P1;SDS_P2;PMS_P1;PMS_P2;Temp;Humidity;BMP_temperature;BMP_pressure;BME280_temperature;BME280_humidity;BME280_pressure;Samples;Min_cycle;Max_cycle;Signal;HPM_P1;HPM_P2
2021/10/08 00:02:56;;;;;;;17.90;10.05;;;;;;;8.29;93.93;101657.31;20913790;28;20103;-71
2021/10/08 00:12:58;;;;;;;18.23;10.77;;;;;;;8.30;93.81;101662.59;20913895;28;20048;-71
2021/10/08 00:23:01;;;;;;;16.85;9.60;;;;;;;8.19;93.63;101648.50;20911888;28;20053;-71
2021/10/08 00:33:04;;;;;;;22.75;10.52;;;;;;;8.24;92.97;101649.47;20910950;28;20237;-70
2021/10/08 00:43:07;;;;;;;18.45;10.13;;;;;;;8.13;93.68;101637.97;20911370;28;20049;-70
2021/10/08 00:53:09;;;;;;;20.10;11.02;;;;;;;8.03;93.61;101641.31;20910674;28;20052;-70
2021/10/08 01:03:12;;;;;;;19.35;10.90;;;;;;;8.03;94.06;101630.88;20909177;28;20052;-70
2021/10/08 01:13:14;;;;;;;21.65;11.77;;;;;;;8.05;93.51;101631.78;20908775;28;20061;-71
2021/10/08 01:23:16;;;;;;;19.50;11.07;;;;;;;7.98;93.98;101639.50;20908212;28;20045;-71
2021/10/08 01:33:18;;;;;;;20.80;11.98;;;;;;;7.94;94.45;101631.63;20906716;28;20102;-71
2021/10/08 01:43:20;;;;;;;21.80;11.38;;;;;;;8.01;93.96;101624.78;20907342;28;20525;-71
2021/10/08 01:53:22;;;;;;;19.63;11.52;;;;;;;7.86;94.64;101621.09;20906041;28;20075;-71
2021/10/08 02:03:24;;;;;;;21.25;12.05;;;;;;;7.95;94.51;101622.94;20905512;28;20122;-71
2021/10/08 02:13:25;;;;;;;20.88;12.13;;;;;;;7.94;93.95;101619.47;20904583;28;20102;-71
2021/10/08 02:23:27;;;;;;;22.70;11.77;;;;;;;7.89;94.51;101607.22;20886372;28;20099;-70
2021/10/08 02:33:29;;;;;;;26.23;11.88;;;;;;;7.91;94.32;101616.81;20903041;28;20091;-70
2021/10/08 02:43:31;;;;;;;21.67;11.60;;;;;;;7.76;94.49;101614.00;20903150;28;20053;-71
2021/10/08 02:53:33;;;;;;;21.70;12.18;;;;;;;7.69;95.31;101614.72;20919559;28;20287;-71
2021/10/08 03:03:53;;;;;;;22.63;12.40;;;;;;;7.57;95.12;101622.34;20919041;28;20462;-70
2021/10/08 03:13:55;;;;;;;20.38;11.73;;;;;;;7.51;95.79;101624.88;20918205;28;20048;-71
2021/10/08 03:23:56;;;;;;;21.98;12.05;;;;;;;7.50;95.75;101633.53;20917463;28;20045;-70
2021/10/08 03:33:59;;;;;;;20.48;12.30;;;;;;;7.43;96.17;101627.38;20916663;28;20048;-70
2021/10/08 03:44:02;;;;;;;21.40;12.80;;;;;;;7.37;96.67;101625.50;20915942;28;20053;-70
2021/10/08 03:54:04;;;;;;;22.60;12.65;;;;;;;7.39;96.33;101638.56;20897959;28;20044;-71
2021/10/08 04:04:07;;;;;;;20.45;11.93;;;;;;;7.38;96.07;101635.09;20913168;28;20164;-70
2021/10/08 04:14:09;;;;;;;22.65;13.15;;;;;;;7.30;96.45;101648.84;20913514;28;20061;-71
2021/10/08 04:24:11;;;;;;;25.65;13.00;;;;;;;7.24;96.61;101647.00;20908062;28;20045;-70
2021/10/08 04:34:13;;;;;;;25.02;12.52;;;;;;;7.17;96.87;101656.41;20910809;28;20098;-70
2021/10/08 04:44:15;;;;;;;25.23;13.02;;;;;;;7.19;96.76;101652.13;20908170;28;20064;-70
2021/10/08 04:54:17;;;;;;;22.30;11.82;;;;;;;7.10;96.77;101648.47;20908824;28;20053;-71
2021/10/08 05:04:18;;;;;;;24.35;13.15;;;;;;;7.12;96.56;101646.78;20907750;28;20067;-71
2021/10/08 05:14:20;;;;;;;23.85;13.77;;;;;;;7.16;97.00;101653.78;20906880;28;20509;-71
2021/10/08 05:24:23;;;;;;;24.23;13.65;;;;;;;7.15;96.92;101652.03;20906641;28;20045;-71
2021/10/08 05:34:24;;;;;;;23.10;12.80;;;;;;;7.19;96.97;101648.66;20905107;28;20057;-71
2021/10/08 05:44:26;;;;;;;22.55;13.45;;;;;;;7.24;97.01;101657.44;20919191;22;20102;-69
2021/10/08 05:54:28;;;;;;;22.67;12.27;;;;;;;7.23;97.27;101662.59;20904794;28;20045;-69
2021/10/08 06:04:30;;;;;;;24.35;13.10;;;;;;;7.34;96.27;101663.69;20903711;28;20053;-68
2021/10/08 06:14:31;;;;;;;25.17;14.07;;;;;;;7.35;96.65;101673.25;20903074;28;20045;-69
2021/10/08 06:24:34;;;;;;;22.92;12.77;;;;;;;7.54;95.96;101666.63;20901774;28;20056;-69
2021/10/08 06:34:35;;;;;;;23.65;12.68;;;;;;;7.57;96.25;101671.88;20902098;28;20045;-68
2021/10/08 06:44:37;;;;;;;20.92;11.95;;;;;;;7.69;95.85;101672.97;20896104;28;20072;-69
2021/10/08 06:54:39;;;;;;;22.15;12.98;;;;;;;7.91;95.71;101676.81;20901241;28;20071;-69
2021/10/08 07:04:41;;;;;;;23.65;12.30;;;;;;;8.10;95.19;101672.75;20895129;28;20102;-69
2021/10/08 07:14:43;;;;;;;20.85;12.38;;;;;;;8.37;93.78;101674.00;20947601;28;20067;-69
2021/10/08 07:24:45;;;;;;;19.65;12.35;;;;;;;8.59;92.94;101676.06;20931549;28;20111;-69
2021/10/08 07:34:47;;;;;;;20.67;12.40;;;;;;;8.89;92.15;101678.16;20889572;28;20456;-69
2021/10/08 07:44:48;;;;;;;18.80;11.68;;;;;;;9.18;91.78;101672.38;20990330;28;20099;-69
2021/10/08 07:54:50;;;;;;;17.25;10.57;;;;;;;9.40;91.74;101679.59;20996937;28;20103;-69
2021/10/08 08:05:11;;;;;;;18.83;10.18;;;;;;;9.84;89.86;101676.47;20980226;28;20041;-71
2021/10/08 08:15:12;;;;;;;18.67;10.35;;;;;;;10.20;88.53;101675.84;20950046;28;20107;-69
2021/10/08 08:25:14;;;;;;;16.70;9.65;;;;;;;10.64;87.28;101667.41;20912089;28;20045;-69
2021/10/08 08:35:16;;;;;;;12.40;9.10;;;;;;;10.89;85.78;101672.72;20910878;28;20057;-69
2021/10/08 08:45:19;;;;;;;15.38;9.55;;;;;;;11.26;84.90;101658.84;20891552;28;20053;-69
2021/10/08 08:55:21;;;;;;;15.40;8.85;;;;;;;11.68;81.91;101667.59;20909496;28;20053;-70
2021/10/08 09:05:26;;;;;;;14.35;8.13;;;;;;;12.00;80.77;101644.00;20907768;28;20072;-69
2021/10/08 09:15:50;;;;;;;15.05;7.30;;;;;;;12.23;79.60;101640.47;20955346;28;20057;-70
2021/10/08 09:25:51;;;;;;;11.23;6.65;;;;;;;12.73;78.20;101631.50;20971590;28;20049;-70
2021/10/08 09:35:55;;;;;;;11.95;6.45;;;;;;;12.91;77.99;101625.28;20988831;28;20040;-70
2021/10/08 09:45:59;;;;;;;14.10;6.97;;;;;;;13.74;75.12;101610.63;20987301;28;20101;-70
2021/10/08 09:56:22;;;;;;;11.80;6.10;;;;;;;13.74;74.31;101612.41;20988134;28;20044;-69
2021/10/08 10:06:24;;;;;;;10.27;6.20;;;;;;;14.33;71.75;101605.66;20985676;28;20040;-70
2021/10/08 10:16:31;;;;;;;9.43;5.93;;;;;;;14.43;72.00;101602.00;20930566;28;20464;-70
2021/10/08 10:26:34;;;;;;;15.05;7.18;;;;;;;14.15;72.17;101629.56;20884205;28;20088;-69
2021/10/08 10:36:41;;;;;;;12.70;6.50;;;;;;;14.60;72.64;101612.34;20884647;28;20053;-70
2021/10/08 10:56:48;;;;;;;12.40;6.63;;;;;;;14.56;71.08;101608.91;20901294;28;20110;-69
2021/10/08 11:07:23;;;;;;;13.80;7.25;;;;;;;14.87;71.38;101597.94;20904114;28;20457;-70
2021/10/08 11:17:46;;;;;;;12.67;6.37;;;;;;;14.92;71.61;101593.47;20947795;28;20110;-70
2021/10/08 11:27:49;;;;;;;11.75;5.88;;;;;;;15.20;71.86;101585.13;20999506;28;20048;-71
2021/10/08 11:37:51;;;;;;;16.40;7.82;;;;;;;15.36;70.66;101586.63;20998244;28;20552;-71
2021/10/08 11:47:56;;;;;;;14.05;7.30;;;;;;;15.64;69.49;101561.53;20997719;28;20047;-71
2021/10/08 11:58:00;;;;;;;15.05;7.22;;;;;;;15.44;70.19;101546.91;20998063;28;20048;-68
2021/10/08 12:08:03;;;;;;;12.17;7.40;;;;;;;15.97;68.21;101539.78;20996176;28;20489;-70
2021/10/08 12:18:05;;;;;;;13.75;7.55;;;;;;;16.03;68.13;101524.69;20910050;28;20054;-69
2021/10/08 12:28:09;;;;;;;14.23;8.15;;;;;;;15.84;66.86;101526.81;20911991;28;20416;-67
2021/10/08 12:38:18;;;;;;;14.38;8.65;;;;;;;16.03;66.86;101522.03;20909557;28;20045;-68
2021/10/08 12:48:23;;;;;;;14.32;8.20;;;;;;;15.87;66.19;101510.91;20892888;28;20045;-68
2021/10/08 12:58:30;;;;;;;13.73;8.15;;;;;;;16.29;66.64;101494.19;20910132;28;20053;-67
2021/10/08 13:08:35;;;;;;;12.95;8.93;;;;;;;16.35;66.22;101502.00;20907102;28;20041;-68
2021/10/08 13:18:47;;;;;;;15.20;9.03;;;;;;;16.22;66.81;101495.25;20981281;28;20048;-68
2021/10/08 13:28:49;;;;;;;14.77;8.65;;;;;;;16.26;67.63;101495.13;20989176;28;20102;-68
2021/10/08 13:38:50;;;;;;;15.23;9.52;;;;;;;16.37;65.37;101484.31;21026594;23;20064;-82
2021/10/08 14:10:34;;;;;;;15.60;9.00;;;;;;;16.48;65.73;101445.31;20886002;28;20140;-69
2021/10/08 14:20:36;;;;;;;12.20;7.82;;;;;;;16.37;66.60;101447.31;20871163;22;20048;-79
2021/10/08 14:30:38;;;;;;;14.43;8.73;;;;;;;16.35;66.18;101459.72;20863420;28;20107;-78
2021/10/08 14:40:40;;;;;;;14.85;9.25;;;;;;;16.30;66.62;101451.03;20839673;28;20049;-78
2021/10/08 14:50:42;;;;;;;14.57;9.02;;;;;;;16.39;66.37;101442.88;20849220;28;20553;-78
2021/10/08 15:00:45;;;;;;;13.52;8.48;;;;;;;16.74;65.00;101427.97;20843464;28;20049;-79
2021/10/08 15:10:52;;;;;;;13.90;8.48;;;;;;;16.11;65.49;101429.41;20835723;28;20049;-79
2021/10/08 15:20:54;;;;;;;13.05;8.63;;;;;;;15.83;67.14;101423.84;20840488;28;20100;-79
2021/10/08 15:30:56;;;;;;;16.63;10.32;;;;;;;15.56;68.93;101420.84;20840583;28;20049;-79
2021/10/08 15:40:58;;;;;;;14.93;9.73;;;;;;;15.76;68.50;101416.94;20833033;28;20068;-80
2021/10/08 15:51:00;;;;;;;15.00;9.48;;;;;;;15.78;68.63;101413.38;20832162;28;20061;-79
2021/10/08 16:01:02;;;;;;;15.25;10.80;;;;;;;15.31;71.21;101414.31;20861804;28;20092;-80
2021/10/08 16:11:45;;;;;;;13.55;9.60;;;;;;;15.14;70.78;101414.63;20840346;28;20128;-79
2021/10/08 16:21:50;;;;;;;14.10;9.70;;;;;;;14.98;70.14;101423.69;20836197;28;20033;-79
2021/10/08 16:43:15;;;;;;;18.33;9.32;;;;;;;14.51;72.34;101426.22;20879008;28;20076;-80
2021/10/08 16:53:20;;;;;;;15.60;9.88;;;;;;;14.29;73.73;101445.88;20890467;28;20053;-79
2021/10/08 17:03:21;;;;;;;15.63;10.00;;;;;;;14.07;75.05;101446.16;20895247;28;20094;-81
2021/10/08 17:13:22;;;;;;;16.60;11.00;;;;;;;13.74;78.13;101455.34;20917770;28;20689;-80
2021/10/08 17:23:26;;;;;;;19.20;11.18;;;;;;;13.75;77.32;101458.84;20902572;28;20064;-80
2021/10/08 17:43:49;;;;;;;18.98;11.70;;;;;;;13.39;79.32;101471.53;20873796;28;20104;-80
2021/10/08 17:53:51;;;;;;;19.40;12.18;;;;;;;13.23;80.05;101469.94;20793334;28;20096;-81
2021/10/08 18:03:53;;;;;;;19.65;12.63;;;;;;;13.27;78.72;101466.38;20816240;28;20658;-81
2021/10/08 18:14:02;;;;;;;21.48;12.95;;;;;;;13.09;79.73;101468.28;20847111;23;20046;-67
2021/10/08 18:24:05;;;;;;;19.60;12.70;;;;;;;12.97;79.68;101473.63;20753030;28;20053;-69
2021/10/08 18:34:07;;;;;;;22.27;12.57;;;;;;;12.72;80.68;101479.97;20849874;28;20559;-68
2021/10/08 18:44:09;;;;;;;20.13;13.13;;;;;;;12.69;80.07;101474.72;20848540;28;20497;-68
2021/10/08 18:54:11;;;;;;;25.95;13.40;;;;;;;12.50;80.62;101472.25;20817683;28;20100;-68
2021/10/08 19:04:13;;;;;;;21.83;14.02;;;;;;;12.35;80.60;101471.44;20864472;28;20531;-68
2021/10/08 19:14:27;;;;;;;22.10;13.20;;;;;;;12.43;79.76;101470.53;20864345;28;20060;-68
2021/10/08 19:24:29;;;;;;;24.77;14.95;;;;;;;12.26;81.78;101461.88;20793737;28;20107;-68
2021/10/08 19:34:30;;;;;;;24.92;16.38;;;;;;;12.00;83.69;101473.38;20807676;28;20456;-68
2021/10/08 19:44:41;;;;;;;25.25;16.10;;;;;;;11.81;84.11;101463.81;20808301;28;20103;-68
2021/10/08 19:54:43;;;;;;;24.73;15.68;;;;;;;11.79;84.00;101460.31;20873506;28;20504;-68
2021/10/08 20:04:50;;;;;;;23.65;15.32;;;;;;;11.79;83.37;101461.19;20889457;28;20048;-68
2021/10/08 20:14:51;;;;;;;27.08;15.13;;;;;;;11.86;82.59;101455.94;20887632;28;20126;-68
2021/10/08 20:24:53;;;;;;;25.58;15.13;;;;;;;11.98;80.93;101446.28;20886461;28;20403;-67
2021/10/08 20:34:54;;;;;;;23.42;14.90;;;;;;;12.11;79.88;101452.31;20888434;28;20066;-67
2021/10/08 20:44:56;;;;;;;24.05;14.80;;;;;;;12.04;79.99;101466.38;20879872;28;20387;-65
2021/10/08 20:54:57;;;;;;;24.98;15.50;;;;;;;11.98;79.57;101461.16;20788929;28;20049;-65
2021/10/08 21:04:59;;;;;;;27.27;15.70;;;;;;;11.78;79.81;101463.81;20802376;28;20060;-65
2021/10/08 21:15:01;;;;;;;23.95;15.20;;;;;;;11.74;79.09;101457.72;20801277;28;20581;-65
2021/10/08 21:25:05;;;;;;;26.02;15.43;;;;;;;11.68;79.23;101464.72;20803359;28;20590;-67
2021/10/08 21:35:07;;;;;;;27.33;16.10;;;;;;;11.48;79.58;101468.28;20803556;28;20054;-68
2021/10/08 21:45:12;;;;;;;33.35;17.02;;;;;;;11.44;79.42;101473.53;20802984;28;20045;-67
2021/10/08 21:55:13;;;;;;;33.67;17.92;;;;;;;11.25;80.54;101473.56;20871762;28;20110;-69
2021/10/08 22:05:15;;;;;;;30.55;18.33;;;;;;;11.19;81.11;101477.94;20862333;28;20056;-69
2021/10/08 22:15:17;;;;;;;34.05;18.77;;;;;;;10.99;81.68;101470.09;20804662;28;20049;-69
2021/10/08 22:25:29;;;;;;;37.30;19.27;;;;;;;10.93;81.51;101468.34;20806147;28;20099;-69
2021/10/08 22:35:32;;;;;;;36.63;19.25;;;;;;;10.95;81.13;101458.72;20806222;28;20656;-69
2021/10/08 22:45:33;;;;;;;34.38;19.30;;;;;;;10.89;81.17;101450.88;20805399;28;20041;-69
2021/10/08 22:55:36;;;;;;;35.13;20.42;;;;;;;10.69;82.86;101450.88;20805427;28;20049;-69
2021/10/08 23:05:38;;;;;;;36.42;21.00;;;;;;;10.60;83.38;101457.84;20815144;28;20045;-69
2021/10/08 23:15:44;;;;;;;39.15;20.60;;;;;;;10.52;83.21;101444.75;20821175;28;20049;-69
2021/10/08 23:25:45;;;;;;;39.92;21.10;;;;;;;10.51;83.50;101449.09;20820746;28;20226;-69
2021/10/08 23:35:47;;;;;;;37.08;20.95;;;;;;;10.38;83.67;101443.84;20819255;28;20057;-66
2021/10/08 23:45:48;;;;;;;38.63;21.60;;;;;;;10.21;84.30;101443.78;20819853;28;20115;-66
2021/10/08 23:55:52;;;;;;;38.20;22.55;;;;;;;10.17;84.48;101442.03;20818397;28;20076;-67
